Time;durP1;ratioP1;P1;durP2;ratioP2;P2;SDS_P1;SDS_P2;PMS_P1;PMS_P2;Temp;Humidity;BMP_temperature;BMP_pressure;BME280_temperature;BME280_humidity;BME280_pressure;Samples;Min_cycle;Max_cycle;Signal;HPM_P1;HPM_P2
2022/06/20 00:00:13;;;;;;;4.88;3.33;;;;;;;17.06;58.19;100708.66;685095;28;1258;-76
2022/06/20 00:00:34;;;;;;;4.60;3.28;;;;;;;16.97;58.23;100688.41;687903;28;1053;-76
2022/06/20 00:00:58;;;;;;;4.38;3.28;;;;;;;16.94;58.33;100683.16;684748;28;1546;-76
2022/06/20 00:01:34;;;;;;;4.30;3.28;;;;;;;17.02;58.33;100695.47;680442;29;1401;-76
2022/06/20 00:01:55;;;;;;;4.78;3.20;;;;;;;16.96;58.35;100684.03;681468;28;1540;-76
2022/06/20 00:02:22;;;;;;;4.85;3.20;;;;;;;16.96;58.34;100680.53;682557;28;1073;-76
2022/06/20 00:02:46;;;;;;;4.78;3.20;;;;;;;16.94;58.38;100667.34;682048;28;1308;-76
2022/06/20 00:03:20;;;;;;;4.93;3.20;;;;;;;16.97;58.34;100671.75;680630;29;1981;-76
2022/06/20 00:03:45;;;;;;;4.63;3.30;;;;;;;16.97;58.37;100671.75;683129;28;1478;-76
2022/06/20 00:04:06;;;;;;;5.07;3.50;;;;;;;16.91;58.43;100666.47;683474;28;2548;-76
2022/06/20 00:04:36;;;;;;;5.78;3.47;;;;;;;16.94;58.19;100656.81;687243;28;1715;-76
2022/06/20 00:05:00;;;;;;;5.68;3.45;;;;;;;16.93;58.35;100654.16;686820;28;1084;-76
2022/06/20 00:05:31;;;;;;;4.68;3.47;;;;;;;16.97;58.28;100664.69;681450;29;1056;-75
2022/06/20 00:05:52;;;;;;;3.45;3.13;;;;;;;16.91;58.29;100648.88;678548;29;1291;-76
2022/06/20 00:06:16;;;;;;;6.32;3.13;;;;;;;16.93;58.31;100647.13;684994;28;1100;-76
2022/06/20 00:06:40;;;;;;;8.77;3.40;;;;;;;16.93;58.28;100639.22;682229;29;1125;-77
2022/06/20 00:07:00;;;;;;;7.38;3.20;;;;;;;16.93;58.44;100631.31;684508;28;1465;-76
2022/06/20 00:07:23;;;;;;;5.05;3.30;;;;;;;16.93;58.40;100628.69;679948;29;1357;-76
2022/06/20 00:07:44;;;;;;;6.10;3.80;;;;;;;16.96;58.39;100638.34;682808;28;1121;-76
2022/06/20 00:08:05;;;;;;;6.20;4.00;;;;;;;16.95;58.26;100631.31;682433;28;1923;-76
2022/06/20 00:08:26;;;;;;;4.50;3.47;;;;;;;16.92;58.39;100626.94;682672;29;871;-76
2022/06/20 00:08:51;;;;;;;5.57;3.28;;;;;;;16.97;58.31;100633.06;681474;29;1704;-76
2022/06/20 00:09:12;;;;;;;5.80;3.30;;;;;;;16.87;58.45;100618.16;682558;29;1033;-76
2022/06/20 00:09:33;;;;;;;4.82;3.30;;;;;;;16.84;58.55;100629.56;682008;29;1097;-76
2022/06/20 00:09:54;;;;;;;4.30;3.27;;;;;;;16.80;58.66;100622.56;681915;29;1276;-75
2022/06/20 00:10:17;;;;;;;3.88;3.10;;;;;;;16.75;58.48;100628.69;679830;29;1170;-76
2022/06/20 00:10:41;;;;;;;5.40;3.33;;;;;;;16.74;58.76;100634.81;679774;29;1230;-76
2022/06/20 00:11:02;;;;;;;6.18;3.55;;;;;;;16.75;58.98;100634.84;679936;28;1364;-76
2022/06/20 00:11:35;;;;;;;6.28;3.50;;;;;;;16.70;58.73;100631.31;682633;29;927;-76
2022/06/20 00:11:56;;;;;;;4.80;3.13;;;;;;;16.74;58.83;100643.63;682321;29;1340;-76
2022/06/20 00:12:20;;;;;;;4.70;3.17;;;;;;;16.73;58.67;100647.16;679384;29;1193;-76
2022/06/20 00:12:42;;;;;;;7.35;3.40;;;;;;;16.75;58.51;100649.75;681970;29;1244;-76
2022/06/20 00:13:02;;;;;;;6.15;3.42;;;;;;;16.70;58.43;100648.00;684946;28;1179;-77
2022/06/20 00:13:29;;;;;;;7.13;3.58;;;;;;;16.70;58.48;100647.13;679937;29;1123;-76
2022/06/20 00:13:54;;;;;;;4.78;3.33;;;;;;;16.64;58.28;100636.56;679360;29;1588;-75
2022/06/20 00:14:19;;;;;;;5.25;3.30;;;;;;;16.85;58.13;100656.81;683388;28;1183;-76
2022/06/20 00:14:40;;;;;;;5.15;3.35;;;;;;;16.74;58.21;100648.00;687818;28;969;-76
2022/06/20 00:15:01;;;;;;;5.68;3.50;;;;;;;16.71;58.06;100647.13;684917;28;884;-76
2022/06/20 00:15:33;;;;;;;5.43;3.40;;;;;;;16.70;58.34;100653.28;687813;28;1755;-76
2022/06/20 00:16:00;;;;;;;5.22;3.20;;;;;;;16.74;58.46;100656.81;683845;28;1112;-76
2022/06/20 00:16:22;;;;;;;4.05;3.00;;;;;;;16.65;58.42;100644.50;677135;29;1100;-76
2022/06/20 00:16:44;;;;;;;4.55;3.40;;;;;;;16.76;58.44;100662.94;679825;29;1117;-76
2022/06/20 00:17:10;;;;;;;4.70;3.50;;;;;;;16.74;58.35;100656.81;682484;29;1067;-75
2022/06/20 00:17:31;;;;;;;4.57;3.42;;;;;;;16.70;58.40;100652.41;682564;29;877;-76
2022/06/20 00:17:54;;;;;;;4.47;3.20;;;;;;;16.68;58.37;100649.78;680513;29;1671;-76
2022/06/20 00:18:14;;;;;;;4.65;3.25;;;;;;;16.69;58.34;100654.16;682471;29;1127;-76
2022/06/20 00:18:35;;;;;;;5.67;3.40;;;;;;;16.68;58.21;100651.53;681334;29;1034;-76
2022/06/20 00:18:56;;;;;;;6.13;3.57;;;;;;;16.62;58.22;100644.50;679737;29;1145;-76
2022/06/20 00:19:17;;;;;;;5.40;3.40;;;;;;;16.64;58.45;100648.00;684950;28;1413;-76
2022/06/20 00:19:40;;;;;;;4.60;3.05;;;;;;;16.62;58.25;100644.50;686890;28;1308;-76
2022/06/20 00:20:00;;;;;;;6.05;3.20;;;;;;;16.58;58.43;100648.00;677173;29;1769;-76
2022/06/20 00:20:22;;;;;;;6.37;3.40;;;;;;;16.60;58.54;100656.81;677239;29;1273;-76
2022/06/20 00:20:42;;;;;;;5.20;3.42;;;;;;;16.66;58.37;100655.91;677701;29;1266;-76
2022/06/20 00:21:03;;;;;;;5.25;3.70;;;;;;;16.54;58.36;100639.22;684793;28;1362;-77
2022/06/20 00:21:24;;;;;;;5.60;3.80;;;;;;;16.54;58.43;100635.72;681738;29;1180;-76
2022/06/20 00:21:44;;;;;;;6.68;4.03;;;;;;;16.57;58.52;100640.97;679594;29;1693;-76
2022/06/20 00:22:06;;;;;;;6.15;3.70;;;;;;;16.59;58.42;100636.56;682149;29;1269;-75
2022/06/20 00:22:27;;;;;;;5.07;3.40;;;;;;;16.53;58.53;100628.69;679888;28;1242;-76
2022/06/20 00:22:48;;;;;;;5.82;3.30;;;;;;;16.52;58.64;100616.38;682048;29;2041;-76
2022/06/20 00:23:09;;;;;;;6.60;3.28;;;;;;;16.51;58.60;100614.63;687828;28;1341;-76
2022/06/20 00:23:30;;;;;;;6.30;3.22;;;;;;;16.51;58.74;100617.25;687793;28;866;-76
2022/06/20 00:23:51;;;;;;;6.60;3.20;;;;;;;16.52;58.69;100619.00;687726;28;1455;-76
2022/06/20 00:24:11;;;;;;;7.45;3.40;;;;;;;16.48;58.76;100604.97;684926;28;1451;-76
2022/06/20 00:24:32;;;;;;;7.50;3.40;;;;;;;16.53;58.70;100615.53;682224;29;1079;-76
2022/06/20 00:24:53;;;;;;;6.83;3.60;;;;;;;16.52;58.71;100619.00;678300;29;1665;-76
2022/06/20 00:25:16;;;;;;;6.00;3.70;;;;;;;16.51;58.71;100610.25;679939;29;1222;-76
2022/06/20 00:25:38;;;;;;;6.13;3.65;;;;;;;16.53;58.64;100623.41;679744;29;1090;-76
2022/06/20 00:25:59;;;;;;;5.60;3.38;;;;;;;16.48;58.69;100617.25;684792;28;1392;-76
2022/06/20 00:26:19;;;;;;;5.00;3.13;;;;;;;16.50;58.69;100623.41;684305;28;1173;-76
2022/06/20 00:26:40;;;;;;;4.82;3.33;;;;;;;16.55;58.77;100637.47;682424;29;1291;-76
2022/06/20 00:27:06;;;;;;;4.15;3.30;;;;;;;16.49;58.97;100630.44;689166;28;1027;-76
2022/06/20 00:27:27;;;;;;;5.75;3.42;;;;;;;16.51;58.83;100631.31;679813;29;848;-75
2022/06/20 00:27:48;;;;;;;6.60;3.43;;;;;;;16.53;58.71;100634.81;679442;29;1606;-76
2022/06/20 00:28:10;;;;;;;7.68;3.40;;;;;;;16.54;58.90;100630.44;682423;29;1903;-76
2022/06/20 00:28:31;;;;;;;7.20;3.47;;;;;;;16.57;58.71;100627.78;681374;29;860;-76
2022/06/20 00:28:52;;;;;;;5.88;3.40;;;;;;;16.61;58.79;100634.84;678193;29;1106;-76
2022/06/20 00:29:12;;;;;;;4.80;3.30;;;;;;;16.64;58.94;100637.47;679868;29;1242;-76
2022/06/20 00:29:35;;;;;;;4.80;3.50;;;;;;;16.61;58.76;100626.03;679510;29;1183;-76
2022/06/20 00:29:56;;;;;;;5.72;3.58;;;;;;;16.63;58.66;100622.53;679695;29;1054;-76
2022/06/20 00:30:18;;;;;;;6.40;4.00;;;;;;;16.62;58.78;100625.16;682665;28;1180;-76
2022/06/20 00:30:40;;;;;;;5.25;3.83;;;;;;;16.65;58.80;100628.69;682459;29;997;-76
2022/06/20 00:31:01;;;;;;;4.30;3.60;;;;;;;16.61;58.63;100615.50;682053;29;1932;-76
2022/06/20 00:31:23;;;;;;;4.53;3.65;;;;;;;16.63;58.51;100614.63;679852;29;1229;-76
2022/06/20 00:31:44;;;;;;;5.55;3.80;;;;;;;16.63;58.79;100609.38;682323;29;1058;-76
2022/06/20 00:32:05;;;;;;;6.43;4.00;;;;;;;16.63;58.58;100609.38;682454;29;1074;-76
2022/06/20 00:32:26;;;;;;;5.50;3.58;;;;;;;16.61;58.67;100610.25;682629;29;1031;-76
2022/06/20 00:32:47;;;;;;;4.53;3.30;;;;;;;16.56;58.54;100590.06;682933;28;1352;-76
2022/06/20 00:33:08;;;;;;;5.35;2.95;;;;;;;16.63;58.52;100604.09;682275;29;1525;-76
2022/06/20 00:33:29;;;;;;;6.78;3.15;;;;;;;16.60;58.48;100598.84;679726;29;2097;-76
2022/06/20 00:33:49;;;;;;;7.78;3.40;;;;;;;16.63;58.60;100608.47;680588;29;1164;-76
2022/06/20 00:34:11;;;;;;;9.05;3.70;;;;;;;16.61;58.68;100603.22;682471;29;1349;-76
2022/06/20 00:34:32;;;;;;;7.22;3.70;;;;;;;16.61;58.62;100608.50;679367;28;1736;-76
2022/06/20 00:34:53;;;;;;;5.30;3.50;;;;;;;16.57;58.84;100604.09;680884;29;1237;-76
2022/06/20 00:35:14;;;;;;;3.72;3.40;;;;;;;16.62;58.65;100620.78;679626;29;1964;-76
2022/06/20 00:35:36;;;;;;;4.10;3.28;;;;;;;16.59;58.89;100612.88;676603;29;1180;-76
2022/06/20 00:35:58;;;;;;;5.00;3.50;;;;;;;16.62;58.80;100626.06;678598;29;1396;-76
2022/06/20 00:36:19;;;;;;;5.43;3.50;;;;;;;16.60;58.95;100627.81;681598;28;1033;-76
2022/06/20 00:36:40;;;;;;;5.63;3.70;;;;;;;16.56;58.87;100621.66;681632;29;1298;-76
2022/06/20 00:37:01;;;;;;;5.43;3.63;;;;;;;16.59;58.84;100628.66;683927;28;1674;-76
2022/06/20 00:37:23;;;;;;;5.97;3.67;;;;;;;16.59;59.03;100628.66;684354;28;1196;-76
2022/06/20 00:37:44;;;;;;;6.28;3.70;;;;;;;16.57;59.03;100633.06;682036;28;2303;-76
2022/06/20 00:38:07;;;;;;;6.03;3.58;;;;;;;16.64;59.03;100642.72;679925;29;1251;-75
2022/06/20 00:38:28;;;;;;;5.75;3.80;;;;;;;16.58;58.91;100635.72;682714;28;1270;-76
2022/06/20 00:38:53;;;;;;;5.60;3.47;;;;;;;16.53;59.03;100626.91;682909;28;2325;-76
2022/06/20 00:39:14;;;;;;;5.28;3.42;;;;;;;16.58;59.12;100640.97;684747;28;1045;-76
2022/06/20 00:39:35;;;;;;;4.40;3.20;;;;;;;16.58;59.20;100633.06;679991;29;1031;-76
2022/06/20 00:39:55;;;;;;;4.33;3.57;;;;;;;16.58;59.45;100630.44;676682;29;1183;-76
2022/06/20 00:40:34;;;;;;;4.47;3.53;;;;;;;16.64;59.28;100633.94;681743;29;1057;-76
2022/06/20 00:41:01;;;;;;;5.45;3.65;;;;;;;16.61;59.23;100634.84;681077;29;942;-76
2022/06/20 00:41:31;;;;;;;5.15;3.53;;;;;;;16.55;59.28;100626.94;679938;29;955;-76
2022/06/20 00:41:53;;;;;;;4.45;3.45;;;;;;;16.54;59.24;100617.28;684743;28;1482;-76
2022/06/20 00:42:14;;;;;;;5.15;3.50;;;;;;;16.56;59.25;100629.56;687340;28;949;-76
2022/06/20 00:42:35;;;;;;;5.03;3.40;;;;;;;16.50;59.22;100623.41;681980;29;1226;-75
2022/06/20 00:42:57;;;;;;;5.10;3.30;;;;;;;16.51;59.28;100625.16;683692;28;1025;-76
2022/06/20 00:43:40;;;;;;;5.28;3.42;;;;;;;16.60;59.36;100637.47;682806;28;1173;-76
2022/06/20 00:44:02;;;;;;;5.32;3.60;;;;;;;16.50;59.42;100628.66;687481;28;2030;-76
2022/06/20 00:44:34;;;;;;;5.65;3.60;;;;;;;16.54;59.29;100639.22;685576;28;1498;-77
2022/06/20 00:44:59;;;;;;;5.88;3.50;;;;;;;16.49;59.21;100626.91;682346;28;1529;-76
2022/06/20 00:45:22;;;;;;;5.68;3.40;;;;;;;16.51;59.22;100641.84;678922;29;1519;-76
2022/06/20 00:45:45;;;;;;;4.53;3.30;;;;;;;16.50;59.25;100633.94;682435;29;1096;-76
2022/06/20 00:46:11;;;;;;;5.75;3.45;;;;;;;16.49;59.15;100627.81;685005;28;1193;-76
2022/06/20 00:46:39;;;;;;;6.20;3.58;;;;;;;16.47;59.20;100624.28;679853;29;1096;-76
2022/06/20 00:47:04;;;;;;;6.53;3.83;;;;;;;16.57;59.27;100638.34;680423;29;1196;-77
2022/06/20 00:47:31;;;;;;;5.32;3.67;;;;;;;16.48;59.26;100625.16;682602;29;828;-76
2022/06/20 00:48:01;;;;;;;6.13;3.33;;;;;;;16.48;59.26;100622.53;681183;29;1396;-75
2022/06/20 00:48:29;;;;;;;6.53;3.22;;;;;;;16.56;59.38;100644.47;680750;29;1097;-76
2022/06/20 00:49:00;;;;;;;5.15;3.40;;;;;;;16.47;59.41;100618.13;683396;28;1798;-76
2022/06/20 00:49:29;;;;;;;5.57;3.58;;;;;;;16.58;59.41;100637.44;679712;29;1139;-76
2022/06/20 00:50:27;;;;;;;5.50;3.60;;;;;;;16.56;59.41;100637.47;682632;28;1141;-76
2022/06/20 00:50:53;;;;;;;6.00;3.38;;;;;;;16.50;59.23;100634.81;682607;28;1577;-76
2022/06/20 00:51:31;;;;;;;5.30;3.47;;;;;;;16.49;59.56;100632.19;683804;28;1629;-76
2022/06/20 00:52:13;;;;;;;4.90;3.50;;;;;;;16.55;59.43;100637.47;682192;28;1224;-76
2022/06/20 00:52:50;;;;;;;4.80;3.50;;;;;;;16.53;59.58;100645.34;682527;29;769;-76
2022/06/20 00:53:20;;;;;;;6.05;3.60;;;;;;;16.47;59.47;100620.78;682187;29;2220;-76
2022/06/20 00:53:47;;;;;;;4.60;3.50;;;;;;;16.46;59.55;100630.41;679054;29;2030;-76
2022/06/20 00:54:22;;;;;;;4.55;3.40;;;;;;;16.50;59.30;100628.66;677248;29;1133;-76
2022/06/20 00:55:01;;;;;;;5.57;3.60;;;;;;;16.44;59.55;100617.28;679203;29;1871;-76
2022/06/20 00:55:29;;;;;;;5.60;4.00;;;;;;;16.47;59.54;100623.41;680531;29;2048;-75
2022/06/20 00:55:59;;;;;;;4.38;3.80;;;;;;;16.45;59.32;100620.75;681302;28;1081;-76
2022/06/20 00:56:46;;;;;;;4.53;3.30;;;;;;;16.55;59.43;100637.47;685033;28;1201;-75
2022/06/20 00:57:15;;;;;;;4.70;3.22;;;;;;;16.55;59.55;100640.09;682316;28;1191;-76
2022/06/20 00:57:48;;;;;;;4.55;3.45;;;;;;;16.48;59.54;100630.44;685050;28;1292;-76
2022/06/20 00:58:13;;;;;;;5.13;3.70;;;;;;;16.57;59.36;100631.31;684221;28;1029;-76
2022/06/20 00:58:41;;;;;;;5.45;3.70;;;;;;;16.66;59.15;100635.69;680555;29;1435;-76
2022/06/20 00:59:08;;;;;;;5.80;3.90;;;;;;;16.64;59.02;100629.56;681309;29;1932;-76
2022/06/20 00:59:37;;;;;;;5.93;4.10;;;;;;;16.67;59.02;100637.44;679555;29;2054;-76
2022/06/20 01:00:06;;;;;;;5.72;3.80;;;;;;;16.66;59.15;100630.44;681821;28;1677;-76
2022/06/20 01:00:33;;;;;;;4.95;3.67;;;;;;;16.67;58.94;100631.31;678681;29;1108;-76
2022/06/20 01:00:55;;;;;;;4.03;3.40;;;;;;;16.69;58.92;100633.09;681485;28;1337;-76
2022/06/20 01:01:21;;;;;;;4.00;3.40;;;;;;;16.66;58.96;100619.03;679915;29;1258;-76
2022/06/20 01:01:42;;;;;;;4.00;3.38;;;;;;;16.67;58.87;100621.66;679838;29;976;-76
2022/06/20 01:02:06;;;;;;;5.75;3.55;;;;;;;16.66;58.95;100617.25;686302;28;1480;-76
2022/06/20 01:03:55;;;;;;;5.45;3.80;;;;;;;16.66;58.86;100606.72;687455;28;1361;-76
2022/06/20 01:04:35;;;;;;;4.45;3.53;;;;;;;16.65;58.86;100610.25;684926;28;1177;-76
2022/06/20 01:05:02;;;;;;;4.00;3.60;;;;;;;16.65;59.07;100604.97;682299;28;1090;-76
2022/06/20 01:05:32;;;;;;;4.30;3.90;;;;;;;16.72;58.99;100608.50;682318;29;852;-76
2022/06/20 01:06:19;;;;;;;4.25;3.80;;;;;;;16.72;58.97;100614.63;682189;29;1213;-76
2022/06/20 01:06:53;;;;;;;7.28;3.70;;;;;;;16.71;59.03;100610.25;682418;29;999;-76
2022/06/20 01:07:22;;;;;;;4.53;3.10;;;;;;;16.67;59.22;100597.06;679793;29;1316;-76
2022/06/20 01:07:53;;;;;;;4.40;3.20;;;;;;;16.67;59.08;100595.31;679713;29;923;-76
2022/06/20 01:08:17;;;;;;;3.92;3.50;;;;;;;16.78;59.00;100616.38;681647;29;1907;-76
2022/06/20 01:08:44;;;;;;;3.78;3.40;;;;;;;16.72;59.04;100604.09;681935;29;1818;-76
2022/06/20 01:09:10;;;;;;;4.00;3.47;;;;;;;16.79;59.11;100612.00;681912;29;1191;-76
2022/06/20 01:09:35;;;;;;;4.68;3.65;;;;;;;16.76;59.13;100609.34;683413;28;859;-76
2022/06/20 01:09:58;;;;;;;5.45;3.92;;;;;;;16.66;59.19;100598.81;683744;28;1045;-76
2022/06/20 01:10:21;;;;;;;7.78;4.00;;;;;;;16.73;59.06;100607.63;685084;28;983;-76
2022/06/20 01:11:00;;;;;;;6.80;4.00;;;;;;;16.71;59.11;100604.97;682329;29;1151;-76
2022/06/20 01:11:26;;;;;;;5.47;3.90;;;;;;;16.77;59.30;100619.91;680971;29;1420;-76
2022/06/20 01:11:53;;;;;;;5.35;4.00;;;;;;;16.74;59.23;100612.00;679962;29;1523;-76
2022/06/20 01:12:31;;;;;;;5.45;3.90;;;;;;;16.68;59.16;100594.44;681425;29;1117;-75
2022/06/20 01:13:03;;;;;;;5.93;4.00;;;;;;;16.77;59.19;100617.25;683896;28;1371;-76
2022/06/20 01:13:26;;;;;;;4.57;3.78;;;;;;;16.68;59.22;100598.81;682508;29;875;-76
2022/06/20 01:13:48;;;;;;;4.32;3.70;;;;;;;16.70;59.08;100604.97;682259;28;1487;-76
2022/06/20 01:14:19;;;;;;;4.75;3.78;;;;;;;16.67;59.27;100595.31;684358;28;1014;-77
2022/06/20 01:14:39;;;;;;;4.90;3.80;;;;;;;16.69;59.30;100604.09;678015;29;971;-76
2022/06/20 01:15:24;;;;;;;6.90;4.00;;;;;;;16.67;59.27;100600.56;679628;29;1531;-76
2022/06/20 01:15:46;;;;;;;9.10;4.30;;;;;;;16.76;59.23;100617.25;681252;29;1460;-76
2022/06/20 01:16:15;;;;;;;6.93;4.00;;;;;;;16.75;59.29;100618.13;681572;29;1405;-76
2022/06/20 01:16:36;;;;;;;5.20;4.00;;;;;;;16.75;59.43;100624.28;685147;28;1053;-76
2022/06/20 01:16:58;;;;;;;5.25;3.90;;;;;;;16.74;59.17;100625.19;680965;29;2056;-75
2022/06/20 01:17:35;;;;;;;5.40;3.88;;;;;;;16.78;59.15;100636.59;679694;29;1462;-76
2022/06/20 01:17:56;;;;;;;7.75;4.32;;;;;;;16.69;59.12;100632.19;686386;28;1832;-76
2022/06/20 01:18:24;;;;;;;7.25;4.45;;;;;;;16.77;59.24;100648.88;687531;28;1170;-75
2022/06/20 01:18:48;;;;;;;5.60;4.47;;;;;;;16.78;59.24;100650.63;676947;29;1098;-75
2022/06/20 01:19:13;;;;;;;6.05;4.50;;;;;;;16.75;59.30;100644.50;677048;29;1604;-76
2022/06/20 01:19:33;;;;;;;4.80;4.00;;;;;;;16.78;59.23;100655.91;679305;29;942;-76
2022/06/20 01:20:02;;;;;;;4.68;4.05;;;;;;;16.79;59.17;100662.06;682403;28;1875;-75
2022/06/20 01:20:34;;;;;;;4.70;4.30;;;;;;;16.75;59.33;100649.75;682945;28;1280;-76
2022/06/20 01:20:56;;;;;;;5.28;4.40;;;;;;;16.74;59.17;100645.38;686568;28;1556;-76
2022/06/20 01:21:24;;;;;;;6.60;4.55;;;;;;;16.70;58.95;100636.59;687106;28;1288;-76
2022/06/20 01:21:58;;;;;;;7.13;4.47;;;;;;;16.72;59.23;100638.34;685069;28;1592;-76
2022/06/20 01:22:41;;;;;;;6.10;4.38;;;;;;;16.78;59.10;100644.50;682844;28;1659;-75
2022/06/20 01:23:19;;;;;;;6.13;4.10;;;;;;;16.81;59.17;100650.66;684718;28;1278;-76
2022/06/20 01:23:59;;;;;;;5.10;3.67;;;;;;;16.81;59.07;100650.66;682376;29;2006;-76
2022/06/20 01:24:31;;;;;;;5.00;3.60;;;;;;;16.74;59.13;100638.34;682313;29;1011;-75
2022/06/20 01:25:08;;;;;;;5.60;3.80;;;;;;;16.74;59.06;100643.63;680426;29;1606;-76
2022/06/20 01:25:48;;;;;;;6.47;4.07;;;;;;;16.74;59.23;100638.34;679714;29;1062;-76
2022/06/20 01:26:27;;;;;;;6.28;3.92;;;;;;;16.76;59.05;100647.13;679661;29;1280;-75
2022/06/20 01:27:13;;;;;;;6.00;3.60;;;;;;;16.80;59.09;100648.00;679981;28;1464;-76
2022/06/20 01:27:40;;;;;;;6.50;3.85;;;;;;;16.75;59.17;100644.50;686805;28;1421;-75
2022/06/20 01:28:01;;;;;;;5.78;4.00;;;;;;;16.75;59.10;100634.84;680034;29;1396;-76
2022/06/20 01:28:28;;;;;;;5.07;3.60;;;;;;;16.72;58.96;100640.97;679768;29;1449;-75
2022/06/20 01:28:53;;;;;;;4.20;3.40;;;;;;;16.76;59.16;100644.50;679503;29;1659;-75
2022/06/20 01:29:15;;;;;;;4.03;3.63;;;;;;;16.76;58.95;100651.50;677038;29;1612;-75
2022/06/20 01:29:35;;;;;;;4.32;3.90;;;;;;;16.74;59.17;100646.25;681972;29;1201;-75
2022/06/20 01:29:56;;;;;;;4.77;4.00;;;;;;;16.80;59.11;100663.81;682841;28;1617;-75
2022/06/20 01:30:26;;;;;;;7.65;4.28;;;;;;;16.78;59.33;100660.31;677193;29;1143;-75
2022/06/20 01:30:48;;;;;;;8.10;4.30;;;;;;;16.76;59.37;100662.06;678482;29;2032;-75
2022/06/20 01:31:10;;;;;;;4.93;3.90;;;;;;;16.79;59.52;100659.44;676986;29;1560;-75
2022/06/20 01:31:37;;;;;;;4.47;3.88;;;;;;;16.77;59.52;100664.69;682486;29;954;-75
2022/06/20 01:31:59;;;;;;;4.72;4.00;;;;;;;16.76;59.78;100667.31;681286;28;1558;-74
2022/06/20 01:32:20;;;;;;;5.88;4.10;;;;;;;16.76;59.79;100667.31;676785;29;1056;-75
2022/06/20 01:32:43;;;;;;;6.10;4.17;;;;;;;16.71;59.86;100665.56;679670;29;1292;-74
2022/06/20 01:33:04;;;;;;;5.70;4.03;;;;;;;16.81;59.79;100682.28;681682;29;1760;-75
2022/06/20 01:33:26;;;;;;;5.70;4.20;;;;;;;16.71;59.73;100670.84;680798;29;816;-75
2022/06/20 01:33:48;;;;;;;5.28;4.10;;;;;;;16.69;59.74;100675.25;679042;29;1652;-75
2022/06/20 01:34:13;;;;;;;5.43;4.35;;;;;;;16.72;59.79;100677.00;677004;29;1270;-76
2022/06/20 01:34:34;;;;;;;6.00;4.40;;;;;;;16.72;59.82;100687.56;679168;29;1443;-75
2022/06/20 01:34:57;;;;;;;5.88;4.45;;;;;;;16.67;59.95;100682.25;680771;29;1270;-75
2022/06/20 01:37:25;;;;;;;5.13;4.10;;;;;;;16.60;60.15;100682.25;682281;29;1216;-75
2022/06/20 01:37:46;;;;;;;5.15;4.07;;;;;;;16.57;60.16;100684.00;678073;29;939;-75
2022/06/20 01:38:11;;;;;;;5.45;3.92;;;;;;;16.62;60.39;100688.38;677129;29;1197;-76
2022/06/20 01:38:33;;;;;;;5.70;4.25;;;;;;;16.63;60.28;100695.41;679792;29;909;-75
2022/06/20 01:38:55;;;;;;;6.88;4.40;;;;;;;16.60;60.49;100692.78;680580;29;959;-75
2022/06/20 01:39:17;;;;;;;6.65;4.40;;;;;;;16.60;60.52;100695.41;684998;28;1092;-75
2022/06/20 01:39:39;;;;;;;7.85;4.15;;;;;;;16.55;60.68;100693.66;684307;28;1755;-75
2022/06/20 01:40:05;;;;;;;7.78;4.13;;;;;;;16.56;60.69;100697.16;679446;29;1307;-75
2022/06/20 01:40:28;;;;;;;7.72;4.30;;;;;;;16.62;60.58;100707.72;681233;29;1222;-75
2022/06/20 01:42:28;;;;;;;6.57;4.20;;;;;;;16.55;60.46;100709.44;689897;28;871;-75
2022/06/20 01:42:49;;;;;;;7.47;4.07;;;;;;;16.60;60.63;100713.88;689823;28;1488;-75
2022/06/20 01:43:10;;;;;;;9.13;4.50;;;;;;;16.57;60.60;100710.34;690220;28;1773;-75
2022/06/20 01:43:33;;;;;;;6.85;4.15;;;;;;;16.65;60.73;100723.53;687732;28;808;-75
2022/06/20 01:43:56;;;;;;;5.93;4.28;;;;;;;16.59;60.78;100712.97;687310;28;1979;-75
2022/06/20 01:44:17;;;;;;;6.00;4.40;;;;;;;16.58;60.56;100706.84;685024;28;1217;-76
2022/06/20 01:44:42;;;;;;;6.68;4.80;;;;;;;16.60;60.80;100712.13;679613;29;1188;-75
2022/06/20 01:45:59;;;;;;;5.65;4.22;;;;;;;16.56;60.92;100707.72;678990;29;1407;-75
2022/06/20 01:46:25;;;;;;;6.20;3.92;;;;;;;16.63;61.08;100714.75;682323;29;1242;-75
2022/06/20 01:46:46;;;;;;;5.97;4.07;;;;;;;16.53;60.86;100702.44;682281;29;931;-75
2022/06/20 01:47:07;;;;;;;6.80;4.32;;;;;;;16.50;61.15;100707.69;682422;28;1652;-75
2022/06/20 01:47:28;;;;;;;7.10;4.53;;;;;;;16.58;60.97;100712.09;684300;28;1293;-74
2022/06/20 01:47:52;;;;;;;8.30;4.90;;;;;;;16.52;61.20;100705.94;682314;28;1573;-75
2022/06/20 01:48:20;;;;;;;8.63;4.85;;;;;;;16.52;61.15;100705.94;682193;29;1915;-75
2022/06/20 01:48:46;;;;;;;9.23;4.82;;;;;;;16.53;61.08;100702.44;680369;29;1056;-75
2022/06/20 01:49:16;;;;;;;8.80;4.90;;;;;;;16.54;61.25;100710.31;677049;29;1067;-75
2022/06/20 01:49:39;;;;;;;8.00;5.18;;;;;;;16.58;61.38;100709.47;679116;29;998;-75
2022/06/20 01:50:06;;;;;;;8.03;5.40;;;;;;;16.54;61.81;100698.94;682026;28;1666;-75
2022/06/20 01:50:26;;;;;;;7.60;5.32;;;;;;;16.56;61.76;100698.06;679765;29;1292;-75
2022/06/20 01:50:48;;;;;;;6.18;4.90;;;;;;;16.60;61.56;100704.22;677777;29;1573;-75
2022/06/20 01:51:17;;;;;;;6.30;4.82;;;;;;;16.57;61.69;100717.38;684321;28;1270;-75
2022/06/20 01:51:51;;;;;;;6.97;4.95;;;;;;;16.53;61.81;100724.38;687040;28;1117;-75
2022/06/20 01:52:20;;;;;;;5.53;4.72;;;;;;;16.57;61.90;100746.34;682386;29;1230;-75
2022/06/20 01:52:43;;;;;;;5.68;4.60;;;;;;;16.54;61.99;100762.16;680590;29;1233;-75
2022/06/20 01:53:07;;;;;;;7.63;4.88;;;;;;;16.54;62.02;100767.41;687235;28;1081;-75
2022/06/20 01:53:31;;;;;;;8.30;5.10;;;;;;;16.48;62.03;100763.03;686447;28;1259;-75
2022/06/20 01:53:55;;;;;;;10.23;5.25;;;;;;;16.48;61.88;100767.41;681811;28;1673;-74
2022/06/20 01:54:16;;;;;;;10.18;5.45;;;;;;;16.56;61.81;100776.19;684924;28;1137;-75
2022/06/20 01:54:44;;;;;;;9.32;5.35;;;;;;;16.55;62.04;100777.94;684970;28;1100;-75
2022/06/20 01:55:22;;;;;;;6.97;4.93;;;;;;;16.51;61.72;100764.75;678906;29;1459;-76
2022/06/20 01:55:45;;;;;;;6.22;4.75;;;;;;;16.54;61.82;100777.97;687550;28;1025;-75
2022/06/20 01:56:08;;;;;;;5.68;5.07;;;;;;;16.50;61.67;100768.28;683377;28;1571;-75
2022/06/20 01:56:28;;;;;;;6.70;5.20;;;;;;;16.48;61.84;100773.56;679656;29;816;-75
2022/06/20 01:56:51;;;;;;;6.57;5.10;;;;;;;16.51;61.81;100773.56;679559;29;1741;-75
2022/06/20 01:57:23;;;;;;;5.75;4.85;;;;;;;16.42;61.96;100774.38;680613;29;1677;-75
2022/06/20 01:57:54;;;;;;;6.03;5.15;;;;;;;16.39;62.06;100782.28;679400;29;1326;-74
2022/06/20 01:58:46;;;;;;;7.10;5.50;;;;;;;16.51;62.32;100809.53;679569;29;1270;-75
2022/06/20 01:59:11;;;;;;;7.63;5.47;;;;;;;16.41;62.04;100788.44;680395;29;1286;-75
2022/06/20 01:59:39;;;;;;;8.63;5.22;;;;;;;16.46;62.14;100790.22;683914;28;780;-75
2022/06/20 02:00:07;;;;;;;7.25;5.10;;;;;;;16.42;62.41;100789.31;686680;28;1951;-75
2022/06/20 02:00:28;;;;;;;6.57;5.10;;;;;;;16.39;62.49;100790.19;687818;28;1965;-75
2022/06/20 02:01:00;;;;;;;6.07;5.20;;;;;;;16.37;62.51;100791.06;686255;28;1980;-75
2022/06/20 02:01:22;;;;;;;7.00;5.20;;;;;;;16.35;62.48;100783.13;684373;28;1100;-75
2022/06/20 02:01:43;;;;;;;6.63;5.10;;;;;;;16.34;62.66;100786.66;685111;28;1033;-75
2022/06/20 02:02:04;;;;;;;5.90;5.00;;;;;;;16.38;62.73;100793.69;681882;28;1705;-76
2022/06/20 02:02:29;;;;;;;6.38;5.30;;;;;;;16.42;62.63;100797.22;683310;28;1287;-75
2022/06/20 02:02:54;;;;;;;7.63;5.35;;;;;;;16.46;62.53;100803.38;683468;28;1447;-75
2022/06/20 02:03:18;;;;;;;7.07;5.10;;;;;;;16.39;62.65;100800.72;679476;29;1792;-75
2022/06/20 02:03:51;;;;;;;6.20;4.90;;;;;;;16.34;62.67;100798.94;678643;29;1484;-75
2022/06/20 02:04:17;;;;;;;6.95;5.25;;;;;;;16.28;62.82;100805.03;679707;29;1548;-75
2022/06/20 02:04:38;;;;;;;7.75;5.70;;;;;;;16.26;62.87;100812.06;682186;29;1178;-75
2022/06/20 02:05:04;;;;;;;8.07;6.05;;;;;;;16.30;62.87;100819.97;681997;29;1585;-76
2022/06/20 02:05:31;;;;;;;9.38;5.75;;;;;;;16.16;63.22;100809.34;679595;29;1131;-76
2022/06/20 02:05:55;;;;;;;11.30;5.65;;;;;;;16.17;63.33;100816.38;678435;29;1703;-76
2022/06/20 02:06:21;;;;;;;11.32;5.90;;;;;;;16.22;63.30;100823.44;681972;29;1736;-75
2022/06/20 02:06:44;;;;;;;10.85;6.18;;;;;;;16.13;63.68;100808.47;681856;28;1047;-76
2022/06/20 02:07:08;;;;;;;9.40;6.20;;;;;;;16.15;63.44;100822.50;684544;28;1521;-76
2022/06/20 02:07:31;;;;;;;9.20;5.95;;;;;;;16.11;63.36;100821.59;685115;28;860;-75
2022/06/20 02:07:53;;;;;;;7.65;5.63;;;;;;;16.07;63.77;100809.31;682772;28;931;-76